Jeffersonton, Virginia
Current Conditions -  °F | °C
As of 9:55 AM on Monday 24 Nov 2014 (Local Time) from KCJR Reporting Station
Overcast Overcast  
Wind Chill: 64°   Ceiling: 2800
Heat Index: 64°   Visibility: 10mi
Dew Point: 57°   Wind: 9mph
Humidity: 77%   Direction: 210°SSW
Pressure: 29.71"   Gusts: 17mph
Location:  38.64°N, 77.91°W
Report Text: KCJR 241455Z AUTO 21008G15KT 10SM BKN028 OVC034 18/14 A2971 RMK AO2 LTG DSNT S
Loading
Personal Weather Stations






























Interactive Weather Map New forecast layout! Learn more

10-Day Weather Forecast

Advertisements
Track Severe Weather on mobile